Ozery, Russia
Current Conditions -  °F | °C
As of 12:00 AM on Friday 24 Oct 2014 (Local Time) from UUDD Reporting Station
Broken Clouds Broken Clouds  
Wind Chill: 11°   Ceiling: 1300
Heat Index: 21°   Visibility: 6mi
Dew Point: 18°   Wind: 9mph
Humidity: 86%   Direction: 300°WNW
Pressure: 30.39"   Gusts: NA
Location:  54.85°N, 38.55°E
Report Text: UUDD 232100Z 30004MPS 9999 BKN013 M06/M08 Q1029 3219009582190095 NOSIG
Loading
Personal Weather Stations






























Interactive Weather Map
Tropical Storm Tracking
New forecast layout! Learn more

10-Day Weather Forecast

Advertisements
Track Severe Weather on mobile